Time;durP1;ratioP1;P1;durP2;ratioP2;P2;SDS_P1;SDS_P2;PMS_P1;PMS_P2;Temp;Humidity;BMP_temperature;BMP_pressure;BME280_temperature;BME280_humidity;BME280_pressure;Samples;Min_cycle;Max_cycle;Signal;HPM_P1;HPM_P2
2021/10/21 00:01:35;;;;;;;4.20;4.00;;;19.20;78.70;;;;;;5051730;28;20804;-48
2021/10/21 00:04:01;;;;;;;3.80;3.70;;;19.20;79.10;;;;;;5058077;28;20472;-47
2021/10/21 00:06:27;;;;;;;4.07;3.87;;;19.00;79.60;;;;;;5049584;28;20689;-54
2021/10/21 00:08:52;;;;;;;3.47;3.37;;;19.00;80.20;;;;;;5051006;28;20647;-48
2021/10/21 00:11:18;;;;;;;3.87;3.77;;;19.00;80.60;;;;;;5049776;28;20193;-50
2021/10/21 00:13:44;;;;;;;4.00;3.80;;;18.90;82.20;;;;;;5061916;28;20678;-50
2021/10/21 00:16:09;;;;;;;4.50;4.30;;;18.80;83.40;;;;;;5067861;28;20215;-47
2021/10/21 00:18:35;;;;;;;4.53;4.33;;;18.80;84.60;;;;;;5054053;28;20223;-48
2021/10/21 00:21:00;;;;;;;4.50;4.30;;;18.70;85.90;;;;;;5052610;28;20181;-47
2021/10/21 00:23:26;;;;;;;4.50;4.30;;;18.60;86.90;;;;;;5052377;28;20717;-49
2021/10/21 00:25:52;;;;;;;4.43;4.23;;;18.50;85.70;;;;;;5055183;28;20263;-48
2021/10/21 00:28:18;;;;;;;4.20;3.90;;;18.30;87.80;;;;;;5051097;28;20521;-48
2021/10/21 00:30:43;;;;;;;4.57;4.37;;;18.30;87.50;;;;;;5061480;28;20220;-51
2021/10/21 00:33:09;;;;;;;4.40;4.20;;;18.30;87.90;;;;;;5048900;28;20188;-49
2021/10/21 00:35:34;;;;;;;5.47;5.20;;;18.30;87.60;;;;;;5049302;28;20193;-48
2021/10/21 00:38:00;;;;;;;5.00;4.77;;;18.30;88.00;;;;;;5048334;28;20277;-48
2021/10/21 00:40:25;;;;;;;5.23;4.93;;;18.20;88.80;;;;;;5050493;28;20242;-49
2021/10/21 00:42:51;;;;;;;4.63;4.43;;;18.20;89.50;;;;;;5048653;28;20188;-49
2021/10/21 00:45:17;;;;;;;5.40;5.00;;;18.10;90.20;;;;;;5056991;28;20177;-50
2021/10/21 00:47:42;;;;;;;5.50;5.20;;;18.10;90.70;;;;;;5063559;28;20194;-50
2021/10/21 00:50:08;;;;;;;6.33;5.93;;;18.00;91.20;;;;;;5057077;28;20654;-47
2021/10/21 00:52:34;;;;;;;5.90;5.50;;;17.90;91.60;;;;;;5051032;28;20182;-50
2021/10/21 00:55:00;;;;;;;6.17;5.77;;;17.80;92.20;;;;;;5048948;28;20416;-50
2021/10/21 00:57:26;;;;;;;6.00;5.70;;;17.80;92.40;;;;;;5058862;28;20610;-47
2021/10/21 00:59:53;;;;;;;5.60;5.30;;;17.80;92.60;;;;;;5048827;28;20178;-50
2021/10/21 01:02:18;;;;;;;5.90;5.50;;;17.80;93.00;;;;;;5062033;28;20818;-48
2021/10/21 01:04:44;;;;;;;6.40;6.00;;;17.70;93.10;;;;;;5047935;28;20479;-47
2021/10/21 01:07:09;;;;;;;6.20;5.80;;;17.60;93.20;;;;;;5048687;28;20528;-50
2021/10/21 01:09:39;;;;;;;6.67;6.27;;;17.60;93.20;;;;;;5059075;28;20322;-49
2021/10/21 01:12:05;;;;;;;7.03;6.53;;;17.60;93.40;;;;;;5047741;28;20175;-46
2021/10/21 01:14:31;;;;;;;7.17;6.67;;;17.60;93.70;;;;;;5051585;28;20448;-49
2021/10/21 01:16:56;;;;;;;7.00;6.60;;;17.60;94.10;;;;;;5048728;28;20466;-47
2021/10/21 01:19:24;;;;;;;8.57;7.97;;;17.60;94.50;;;;;;5064123;28;20221;-51
2021/10/21 01:21:52;;;;;;;9.67;8.97;;;17.60;94.60;;;;;;5053298;28;20178;-50
2021/10/21 01:24:19;;;;;;;8.90;8.30;;;17.60;95.00;;;;;;5052768;28;20852;-56
2021/10/21 01:26:49;;;;;;;10.17;9.47;;;17.60;94.60;;;;;;5051347;28;20464;-53
2021/10/21 01:29:17;;;;;;;10.73;9.93;;;17.60;95.10;;;;;;5060058;28;20428;-47
2021/10/21 01:31:43;;;;;;;10.87;10.07;;;17.60;95.60;;;;;;5064224;28;20892;-50
2021/10/21 01:34:11;;;;;;;10.50;9.80;;;17.50;95.90;;;;;;5054819;28;20504;-47
2021/10/21 01:36:37;;;;;;;9.80;9.10;;;17.50;96.20;;;;;;5055369;28;20456;-48
2021/10/21 01:39:11;;;;;;;10.60;9.70;;;17.60;96.10;;;;;;5051778;28;20801;-46
2021/10/21 01:41:37;;;;;;;10.10;9.30;;;17.60;96.50;;;;;;5052010;28;20449;-48
2021/10/21 01:44:04;;;;;;;9.57;8.70;;;17.50;96.90;;;;;;5055609;28;20436;-57
2021/10/21 01:46:29;;;;;;;8.40;7.80;;;17.50;97.50;;;;;;5055765;28;20763;-47
2021/10/21 01:48:55;;;;;;;7.70;7.20;;;17.50;98.00;;;;;;5064217;28;20489;-48
2021/10/21 01:51:21;;;;;;;7.53;6.97;;;17.50;98.40;;;;;;5062691;28;20187;-48
2021/10/21 01:53:46;;;;;;;7.37;6.87;;;17.50;98.30;;;;;;5060936;28;20281;-49
2021/10/21 01:56:13;;;;;;;7.43;6.93;;;17.50;98.30;;;;;;5052294;28;20227;-50
2021/10/21 01:58:39;;;;;;;7.17;6.60;;;17.50;98.70;;;;;;5061062;28;20202;-45
2021/10/21 02:01:05;;;;;;;7.50;6.90;;;17.50;99.10;;;;;;5067698;28;20430;-46
2021/10/21 02:03:30;;;;;;;7.60;7.00;;;17.50;99.50;;;;;;5053067;28;20259;-50
2021/10/21 02:05:56;;;;;;;5.70;5.40;;;17.40;99.90;;;;;;5051505;28;20192;-49
2021/10/21 02:08:22;;;;;;;4.53;4.23;;;17.50;98.30;;;;;;5054003;28;20790;-50
2021/10/21 02:10:48;;;;;;;4.40;4.10;;;17.70;96.40;;;;;;5054331;28;20458;-60
2021/10/21 02:13:14;;;;;;;4.87;4.50;;;17.90;96.00;;;;;;5054108;28;20190;-49
2021/10/21 02:15:40;;;;;;;4.63;4.40;;;18.20;95.20;;;;;;5056345;28;20179;-47
2021/10/21 02:18:05;;;;;;;4.17;3.97;;;18.30;94.70;;;;;;5068944;28;20462;-50
2021/10/21 02:20:31;;;;;;;4.50;4.30;;;18.40;94.60;;;;;;5057118;28;21023;-46
2021/10/21 02:22:57;;;;;;;4.13;3.93;;;18.50;94.40;;;;;;5051570;28;20180;-48
2021/10/21 02:25:23;;;;;;;4.17;3.97;;;18.50;94.30;;;;;;5058408;28;20432;-46
2021/10/21 02:27:49;;;;;;;4.60;4.30;;;18.60;94.30;;;;;;5056430;28;20439;-50
2021/10/21 02:30:17;;;;;;;4.77;4.47;;;18.60;94.20;;;;;;5050804;28;20204;-47
2021/10/21 02:32:43;;;;;;;4.23;4.03;;;18.60;94.50;;;;;;5050290;28;20455;-50
2021/10/21 02:35:09;;;;;;;4.60;4.30;;;18.60;94.60;;;;;;5057139;28;20440;-50
2021/10/21 02:37:35;;;;;;;4.33;4.13;;;18.70;94.70;;;;;;5053521;28;20478;-48
2021/10/21 02:40:07;;;;;;;3.90;3.70;;;18.70;95.10;;;;;;5065218;28;20440;-47
2021/10/21 02:42:33;;;;;;;4.40;4.13;;;18.70;95.80;;;;;;5050648;28;20442;-48
2021/10/21 02:44:58;;;;;;;4.13;3.93;;;18.40;97.30;;;;;;5052773;28;20937;-47
2021/10/21 02:47:24;;;;;;;4.60;4.30;;;18.20;99.90;;;;;;5062844;28;20186;-46
2021/10/21 02:49:49;;;;;;;5.23;4.53;;;18.00;99.90;;;;;;5061080;28;20197;-47
2021/10/21 02:52:15;;;;;;;4.60;4.40;;;17.70;99.90;;;;;;5050877;28;20202;-55
2021/10/21 02:54:40;;;;;;;4.40;4.20;;;17.40;99.90;;;;;;5049048;28;20197;-50
2021/10/21 02:57:06;;;;;;;4.30;4.10;;;17.20;1.00;;;;;;5050038;28;20298;-49
2021/10/21 02:59:32;;;;;;;4.00;3.80;;;16.90;1.00;;;;;;5056686;28;20199;-50
2021/10/21 03:01:57;;;;;;;4.03;3.73;;;16.80;99.90;;;;;;5051716;28;20930;-48
2021/10/21 03:04:23;;;;;;;3.50;3.30;;;16.60;99.90;;;;;;5053483;28;20284;-49
2021/10/21 03:06:48;;;;;;;2.70;2.50;;;16.20;1.00;;;;;;5069587;28;20251;-49
2021/10/21 03:09:14;;;;;;;3.23;3.03;;;16.20;90.80;;;;;;5062185;28;20189;-47
2021/10/21 03:11:39;;;;;;;4.00;3.10;;;16.10;99.90;;;;;;5049945;28;20198;-52
2021/10/21 03:14:05;;;;;;;4.30;3.00;;;15.90;99.90;;;;;;5054090;28;20196;-47
2021/10/21 03:16:34;;;;;;;3.43;3.13;;;15.70;99.90;;;;;;5050619;28;20293;-46
2021/10/21 03:19:01;;;;;;;3.27;2.97;;;15.60;99.90;;;;;;5049864;28;20190;-48
2021/10/21 03:21:27;;;;;;;3.20;3.00;;;15.30;99.90;;;;;;5050709;28;20421;-50
2021/10/21 03:23:52;;;;;;;3.30;3.00;;;15.20;99.90;;;;;;5051498;28;20811;-54
2021/10/21 03:26:18;;;;;;;2.93;2.63;;;15.10;99.90;;;;;;5059927;28;20190;-48
2021/10/21 03:28:43;;;;;;;2.70;2.50;;;15.10;99.90;;;;;;5050282;28;20190;-47
2021/10/21 03:31:09;;;;;;;2.90;2.70;;;15.00;99.90;;;;;;5048380;28;20190;-49
2021/10/21 03:33:34;;;;;;;3.83;2.60;;;14.90;99.90;;;;;;5058399;28;20201;-49
2021/10/21 03:36:00;;;;;;;3.00;2.70;;;14.80;99.90;;;;;;5055510;28;20228;-49
2021/10/21 03:38:25;;;;;;;2.73;2.53;;;14.80;99.90;;;;;;5050186;28;20188;-51
2021/10/21 03:40:51;;;;;;;3.10;2.90;;;14.80;99.90;;;;;;5056927;28;20186;-48
2021/10/21 03:43:17;;;;;;;4.17;3.80;;;14.80;99.90;;;;;;5052630;28;20435;-46
2021/10/21 03:45:43;;;;;;;5.83;4.50;;;14.70;99.90;;;;;;5064014;28;20186;-49
2021/10/21 03:48:08;;;;;;;5.10;4.60;;;14.70;99.90;;;;;;5054585;28;20233;-48
2021/10/21 03:50:34;;;;;;;6.33;5.77;;;14.70;99.90;;;;;;5050520;28;20436;-48
2021/10/21 03:52:59;;;;;;;6.60;5.90;;;14.70;99.90;;;;;;5055399;28;20185;-51
2021/10/21 03:55:26;;;;;;;6.17;5.60;;;14.70;99.90;;;;;;5049220;28;20185;-52
2021/10/21 03:57:51;;;;;;;5.50;5.00;;;14.70;99.90;;;;;;5055907;28;20216;-48
2021/10/21 04:00:17;;;;;;;5.50;5.10;;;14.70;99.90;;;;;;5055911;28;20443;-49
2021/10/21 04:02:42;;;;;;;5.60;5.10;;;14.70;99.90;;;;;;5056172;28;20221;-49
2021/10/21 04:05:09;;;;;;;5.00;4.60;;;14.70;99.90;;;;;;5057728;28;20248;-49
2021/10/21 04:07:34;;;;;;;5.10;4.70;;;14.80;99.90;;;;;;5052073;28;21045;-51
2021/10/21 04:10:00;;;;;;;5.77;5.17;;;14.80;99.90;;;;;;5061284;28;20426;-46
2021/10/21 04:12:26;;;;;;;5.20;4.70;;;14.80;99.90;;;;;;5057155;28;20193;-51
2021/10/21 04:14:52;;;;;;;4.80;4.40;;;14.80;99.90;;;;;;5051912;28;20439;-48
2021/10/21 04:17:19;;;;;;;4.40;4.00;;;14.80;99.90;;;;;;5039626;28;20240;-55
2021/10/21 04:19:46;;;;;;;3.70;3.40;;;14.80;99.90;;;;;;5046244;28;20189;-50
2021/10/21 04:22:11;;;;;;;3.53;3.23;;;15.10;99.90;;;;;;5058991;28;20794;-49
2021/10/21 04:24:37;;;;;;;3.00;2.80;;;15.20;99.90;;;;;;5056305;28;20435;-52
2021/10/21 04:27:03;;;;;;;2.73;2.53;;;15.30;99.90;;;;;;5045781;28;20249;-48
2021/10/21 04:29:28;;;;;;;2.40;2.20;;;15.40;99.90;;;;;;5053797;28;20300;-48
2021/10/21 04:31:54;;;;;;;2.20;2.00;;;15.60;99.90;;;;;;5056751;28;20856;-51
2021/10/21 04:34:20;;;;;;;1.90;1.80;;;15.80;99.90;;;;;;5056618;28;20655;-47
2021/10/21 04:36:45;;;;;;;2.30;2.10;;;15.90;99.90;;;;;;5042353;28;20468;-47
2021/10/21 04:39:11;;;;;;;2.70;2.50;;;15.90;99.90;;;;;;5040442;28;20193;-47
2021/10/21 04:41:36;;;;;;;2.60;2.40;;;16.00;99.90;;;;;;5043693;28;20565;-47
2021/10/21 04:44:02;;;;;;;3.13;2.87;;;16.10;99.90;;;;;;5050837;28;20186;-47
2021/10/21 04:46:27;;;;;;;3.17;2.87;;;16.30;99.90;;;;;;5050508;28;20236;-46
2021/10/21 04:48:53;;;;;;;4.20;3.80;;;16.30;99.90;;;;;;5047592;28;20192;-48
2021/10/21 04:51:19;;;;;;;5.07;4.57;;;16.30;99.90;;;;;;5048422;28;20193;-47
2021/10/21 04:53:45;;;;;;;4.90;4.40;;;16.20;99.90;;;;;;5053412;28;20282;-53
2021/10/21 04:56:12;;;;;;;4.17;3.87;;;16.30;99.90;;;;;;5048025;28;20665;-51
2021/10/21 04:58:39;;;;;;;4.53;3.93;;;16.30;99.90;;;;;;5047613;28;20417;-49
2021/10/21 05:01:05;;;;;;;4.90;4.50;;;16.30;99.90;;;;;;5052747;28;20446;-47
2021/10/21 05:03:31;;;;;;;5.20;4.73;;;16.30;99.90;;;;;;5049661;28;20672;-47
2021/10/21 05:05:57;;;;;;;4.93;4.53;;;16.30;99.90;;;;;;5052643;28;20431;-48
2021/10/21 05:08:22;;;;;;;4.70;4.30;;;16.40;99.90;;;;;;5053638;28;20217;-50
2021/10/21 05:10:48;;;;;;;4.70;4.30;;;16.40;99.90;;;;;;5055137;28;20463;-53
2021/10/21 05:13:14;;;;;;;5.47;4.97;;;16.30;99.90;;;;;;5054535;28;20186;-47
2021/10/21 05:15:40;;;;;;;4.83;4.43;;;16.30;99.90;;;;;;5053280;28;22513;-46
2021/10/21 05:18:06;;;;;;;4.20;3.90;;;16.30;99.90;;;;;;5054922;28;20424;-47
2021/10/21 05:20:32;;;;;;;4.40;4.00;;;16.30;99.90;;;;;;5052102;28;20408;-51
2021/10/21 05:22:58;;;;;;;4.20;3.80;;;16.30;99.90;;;;;;5052678;28;20473;-47
2021/10/21 05:25:23;;;;;;;3.93;3.63;;;16.50;99.90;;;;;;5052159;28;20262;-46
2021/10/21 05:27:49;;;;;;;3.90;3.60;;;16.40;99.90;;;;;;5060872;28;20214;-46
2021/10/21 05:30:14;;;;;;;3.37;3.17;;;16.40;99.90;;;;;;5051552;28;20602;-47
2021/10/21 05:32:40;;;;;;;2.93;2.73;;;16.40;99.90;;;;;;5058319;28;20244;-47
2021/10/21 05:35:06;;;;;;;2.70;2.50;;;16.50;99.90;;;;;;5052434;28;20196;-51
2021/10/21 05:37:32;;;;;;;3.30;3.00;;;16.50;99.90;;;;;;5057592;28;20651;-46
2021/10/21 05:39:58;;;;;;;3.03;2.83;;;16.50;99.90;;;;;;5064875;28;20478;-51
2021/10/21 05:42:23;;;;;;;3.20;3.00;;;16.40;99.90;;;;;;5062484;28;20217;-49
2021/10/21 05:44:49;;;;;;;3.87;3.57;;;16.20;99.90;;;;;;5072073;28;20447;-47
2021/10/21 05:47:16;;;;;;;4.00;3.70;;;16.30;99.90;;;;;;5071347;28;20290;-48
2021/10/21 05:49:42;;;;;;;3.63;3.33;;;16.30;99.90;;;;;;5064602;28;20424;-47
2021/10/21 05:52:08;;;;;;;3.03;2.83;;;16.50;99.90;;;;;;5058701;28;20427;-49
2021/10/21 05:54:34;;;;;;;3.57;3.27;;;16.60;99.90;;;;;;5057884;28;20423;-49
2021/10/21 05:56:59;;;;;;;3.13;2.93;;;16.70;99.90;;;;;;5062249;28;21204;-52
2021/10/21 05:59:25;;;;;;;3.10;2.90;;;16.70;99.90;;;;;;5051933;28;20182;-49
2021/10/21 06:01:50;;;;;;;3.10;2.90;;;16.90;99.90;;;;;;5054292;28;20660;-48
2021/10/21 06:04:16;;;;;;;2.50;2.30;;;16.90;99.90;;;;;;5051855;28;20895;-47
2021/10/21 06:06:41;;;;;;;2.53;2.43;;;17.00;99.90;;;;;;5057565;28;20186;-45
2021/10/21 06:09:07;;;;;;;3.00;2.80;;;17.00;99.90;;;;;;5058386;28;20250;-46
2021/10/21 06:11:36;;;;;;;2.83;2.63;;;17.00;99.90;;;;;;5050300;28;20186;-46
2021/10/21 06:14:03;;;;;;;2.80;2.60;;;17.10;99.90;;;;;;5057190;28;20186;-45
2021/10/21 06:16:30;;;;;;;2.70;2.50;;;17.00;99.90;;;;;;5051528;28;20483;-46
2021/10/21 06:18:56;;;;;;;2.80;2.60;;;17.10;99.90;;;;;;5061602;28;20437;-46
2021/10/21 06:21:25;;;;;;;3.33;2.63;;;17.20;99.90;;;;;;5050355;28;20413;-47
2021/10/21 06:23:51;;;;;;;2.73;2.53;;;17.10;99.90;;;;;;5060180;28;20184;-47
2021/10/21 06:26:17;;;;;;;2.90;2.70;;;17.30;99.90;;;;;;5051006;28;20487;-51
2021/10/21 06:28:49;;;;;;;3.30;3.10;;;17.40;99.90;;;;;;5049645;28;20437;-48
2021/10/21 06:31:16;;;;;;;2.53;2.43;;;17.50;99.90;;;;;;5050709;28;20421;-48
2021/10/21 06:33:43;;;;;;;3.00;2.80;;;17.70;99.90;;;;;;5064429;28;20491;-50
2021/10/21 06:36:10;;;;;;;3.20;2.90;;;17.70;99.90;;;;;;5051513;28;20506;-48
2021/10/21 06:38:35;;;;;;;2.70;2.50;;;17.80;99.90;;;;;;5064161;28;20504;-47
2021/10/21 06:41:01;;;;;;;2.90;2.70;;;17.70;99.90;;;;;;5050583;28;20865;-48
2021/10/21 06:43:27;;;;;;;2.30;2.20;;;17.50;99.90;;;;;;5050467;28;20179;-47
2021/10/21 06:45:52;;;;;;;1.93;1.83;;;17.30;99.90;;;;;;5058429;28;20174;-48
2021/10/21 06:48:18;;;;;;;1.97;1.87;;;17.00;99.90;;;;;;5059267;28;20208;-59
2021/10/21 06:50:44;;;;;;;2.00;1.83;;;16.80;99.90;;;;;;5050442;28;20210;-48
2021/10/21 06:53:09;;;;;;;2.10;2.00;;;16.60;99.90;;;;;;5060691;28;20577;-50
2021/10/21 06:55:35;;;;;;;2.00;1.90;;;16.30;99.90;;;;;;5050496;28;20174;-50
2021/10/21 06:58:01;;;;;;;1.97;1.80;;;16.00;99.90;;;;;;5050303;28;20232;-51
2021/10/21 07:00:28;;;;;;;1.60;1.50;;;15.80;99.90;;;;;;5048885;28;20190;-51
2021/10/21 07:02:55;;;;;;;3.30;2.00;;;15.50;99.90;;;;;;5063593;28;20308;-49
2021/10/21 07:05:23;;;;;;;1.63;1.53;;;15.40;99.90;;;;;;5050510;28;20413;-49
2021/10/21 07:07:49;;;;;;;1.90;1.70;;;15.40;99.90;;;;;;5056581;28;20469;-51
2021/10/21 07:10:15;;;;;;;1.87;1.77;;;15.30;99.90;;;;;;5044775;28;20474;-52
2021/10/21 07:12:42;;;;;;;2.70;1.90;;;15.30;99.90;;;;;;5048544;28;20547;-51
2021/10/21 07:15:09;;;;;;;1.90;1.73;;;15.30;99.90;;;;;;5050570;28;20175;-53
2021/10/21 07:17:35;;;;;;;3.10;1.77;;;15.20;99.90;;;;;;5048936;28;20464;-53
2021/10/21 07:20:02;;;;;;;2.40;2.20;;;15.30;99.90;;;;;;5051266;28;20963;-50
2021/10/21 07:22:28;;;;;;;2.60;1.83;;;15.30;99.90;;;;;;5050775;28;20475;-57
2021/10/21 07:24:54;;;;;;;2.17;1.97;;;15.30;99.90;;;;;;5051871;28;21106;-52
2021/10/21 07:27:20;;;;;;;1.73;1.63;;;15.40;99.90;;;;;;5056674;28;20832;-49
2021/10/21 07:29:46;;;;;;;2.90;2.60;;;15.40;99.90;;;;;;5062488;28;20173;-48
2021/10/21 07:32:12;;;;;;;2.30;1.97;;;15.50;99.90;;;;;;5058011;28;20459;-50
2021/10/21 07:34:41;;;;;;;2.20;2.00;;;15.60;99.90;;;;;;5064341;28;20408;-52
2021/10/21 07:37:06;;;;;;;1.97;1.83;;;15.90;99.90;;;;;;5064599;28;20464;-50
2021/10/21 07:39:32;;;;;;;2.50;2.07;;;16.10;99.90;;;;;;5055660;28;21200;-48
2021/10/21 07:42:01;;;;;;;1.90;1.80;;;16.20;99.90;;;;;;5048691;28;20228;-47
2021/10/21 07:44:31;;;;;;;1.83;1.73;;;16.30;99.90;;;;;;5048746;28;20185;-52
2021/10/21 07:46:57;;;;;;;2.47;2.07;;;16.30;99.90;;;;;;5048819;28;20421;-49
2021/10/21 07:49:23;;;;;;;2.33;2.13;;;16.40;99.90;;;;;;5048675;28;20436;-50
2021/10/21 07:51:48;;;;;;;2.40;2.20;;;16.50;99.90;;;;;;5048367;28;20906;-52
2021/10/21 07:54:14;;;;;;;2.03;1.93;;;16.50;99.90;;;;;;5060096;28;20182;-48
2021/10/21 07:56:39;;;;;;;2.23;2.07;;;16.70;99.90;;;;;;5048868;28;20601;-49
2021/10/21 07:59:05;;;;;;;2.10;2.00;;;16.80;99.90;;;;;;5048281;28;20186;-52
2021/10/21 08:01:30;;;;;;;4.30;2.53;;;16.80;99.90;;;;;;5047127;28;20182;-51
2021/10/21 08:03:59;;;;;;;2.90;2.70;;;16.70;99.90;;;;;;5048242;28;20249;-47
2021/10/21 08:06:26;;;;;;;3.00;2.80;;;16.70;99.90;;;;;;5048360;28;20264;-50
2021/10/21 08:08:51;;;;;;;3.50;2.23;;;16.60;99.90;;;;;;5054678;28;20850;-50
2021/10/21 08:11:17;;;;;;;4.03;3.70;;;16.60;99.60;;;;;;5051042;28;20520;-50
2021/10/21 08:13:43;;;;;;;3.17;2.97;;;16.50;97.50;;;;;;5048253;28;20257;-51
2021/10/21 08:16:08;;;;;;;3.40;3.20;;;16.50;95.70;;;;;;5046787;28;20206;-48
2021/10/21 08:18:34;;;;;;;3.80;3.50;;;16.60;92.80;;;;;;5048456;28;20300;-51
2021/10/21 08:21:01;;;;;;;4.70;3.27;;;16.90;90.70;;;;;;5047731;28;20179;-50
2021/10/21 08:23:26;;;;;;;3.00;2.90;;;17.20;87.50;;;;;;5048505;28;20257;-46
2021/10/21 08:25:52;;;;;;;3.60;3.40;;;17.50;84.40;;;;;;5048461;28;20417;-47
2021/10/21 08:28:17;;;;;;;3.60;3.30;;;17.80;82.30;;;;;;5047876;28;20197;-47
2021/10/21 08:30:44;;;;;;;3.57;3.27;;;17.80;80.40;;;;;;5048104;28;20184;-51
2021/10/21 08:33:14;;;;;;;5.03;4.07;;;17.90;79.80;;;;;;5048029;28;20351;-54
2021/10/21 08:35:40;;;;;;;3.70;3.40;;;17.90;80.90;;;;;;5047669;28;20414;-50
2021/10/21 08:38:06;;;;;;;4.67;4.27;;;18.10;80.80;;;;;;5050147;28;21286;-47
2021/10/21 08:40:34;;;;;;;4.03;3.73;;;18.00;78.30;;;;;;5054680;28;20510;-48
2021/10/21 08:43:04;;;;;;;4.03;3.10;;;17.90;75.80;;;;;;5053937;28;20194;-45
2021/10/21 08:45:30;;;;;;;3.60;3.30;;;18.00;77.00;;;;;;5055959;28;20427;-47
2021/10/21 08:48:01;;;;;;;3.90;3.60;;;18.40;75.40;;;;;;5049598;28;20411;-46
2021/10/21 08:50:29;;;;;;;3.80;3.50;;;18.70;73.90;;;;;;5048327;28;20419;-47
2021/10/21 08:52:54;;;;;;;2.90;2.80;;;18.70;71.20;;;;;;5047797;28;20501;-47
2021/10/21 08:55:20;;;;;;;3.23;3.03;;;18.60;68.40;;;;;;5047223;28;20523;-50
2021/10/21 08:57:46;;;;;;;3.90;3.60;;;18.50;68.50;;;;;;5060296;28;20465;-46
2021/10/21 09:00:13;;;;;;;3.60;3.30;;;18.20;66.60;;;;;;5047828;28;20418;-46
2021/10/21 09:02:52;;;;;;;4.13;3.80;;;18.30;65.60;;;;;;5047819;28;20289;-50
2021/10/21 09:08:13;;;;;;;4.00;3.80;;;18.40;65.30;;;;;;5053575;28;20933;-48
2021/10/21 09:10:50;;;;;;;3.70;3.60;;;18.30;65.40;;;;;;5049713;28;21111;-47
2021/10/21 09:13:30;;;;;;;3.60;3.40;;;18.50;63.90;;;;;;5067991;28;20497;-45
2021/10/21 09:15:58;;;;;;;3.30;3.10;;;18.60;64.40;;;;;;5067335;28;20455;-47
2021/10/21 09:18:25;;;;;;;3.90;3.70;;;18.60;62.90;;;;;;5051719;28;20411;-49
2021/10/21 09:20:52;;;;;;;5.17;3.20;;;18.60;62.90;;;;;;5047914;28;20442;-47
2021/10/21 09:23:24;;;;;;;3.10;3.00;;;18.50;62.40;;;;;;5047350;28;20520;-46
2021/10/21 09:25:50;;;;;;;6.73;3.37;;;18.40;62.60;;;;;;5048133;28;20421;-48
2021/10/21 09:28:27;;;;;;;3.80;3.53;;;18.60;62.20;;;;;;5047868;28;20453;-45
2021/10/21 09:31:08;;;;;;;4.10;3.80;;;18.50;61.40;;;;;;5052431;28;20179;-46
2021/10/21 09:33:56;;;;;;;4.47;3.80;;;18.70;62.00;;;;;;5046576;28;20423;-46
2021/10/21 09:36:23;;;;;;;3.47;3.23;;;18.60;61.00;;;;;;5049101;28;20566;-46
2021/10/21 09:38:53;;;;;;;4.03;3.70;;;18.80;62.20;;;;;;5047865;28;20427;-45
2021/10/21 09:41:39;;;;;;;4.97;3.00;;;18.90;60.40;;;;;;5060026;28;21050;-51
2021/10/21 09:44:24;;;;;;;3.27;3.03;;;18.80;60.50;;;;;;5052959;28;20425;-45
2021/10/21 09:46:50;;;;;;;3.10;2.97;;;18.80;60.10;;;;;;5054734;28;20421;-44
2021/10/21 09:49:29;;;;;;;3.33;3.23;;;18.70;60.00;;;;;;5050644;28;20432;-44
2021/10/21 09:51:55;;;;;;;6.90;2.80;;;18.50;61.30;;;;;;5052492;28;20981;-46
2021/10/21 09:54:22;;;;;;;3.40;3.13;;;18.50;60.70;;;;;;5047636;28;20430;-48
2021/10/21 09:57:04;;;;;;;4.10;3.37;;;18.30;61.70;;;;;;5050293;28;20835;-48
2021/10/21 09:59:31;;;;;;;3.10;2.90;;;18.40;62.70;;;;;;5052143;28;20842;-48
2021/10/21 10:02:21;;;;;;;3.93;2.80;;;18.30;61.70;;;;;;5055686;28;20451;-48
2021/10/21 10:04:50;;;;;;;3.80;2.80;;;18.10;63.10;;;;;;5059770;28;20436;-47
2021/10/21 10:07:16;;;;;;;10.80;3.07;;;18.00;65.60;;;;;;5062511;28;20463;-49
2021/10/21 10:09:42;;;;;;;5.73;3.10;;;18.50;64.40;;;;;;5057047;28;20417;-49
2021/10/21 10:12:08;;;;;;;3.30;3.00;;;18.40;63.60;;;;;;5058448;28;20512;-49
2021/10/21 10:14:39;;;;;;;5.07;3.70;;;18.50;64.90;;;;;;5058486;28;20180;-51
2021/10/21 10:17:05;;;;;;;3.30;3.20;;;18.20;65.70;;;;;;5054006;28;20481;-50
2021/10/21 10:19:31;;;;;;;3.00;2.90;;;18.20;66.60;;;;;;5060277;28;20452;-47
2021/10/21 10:21:59;;;;;;;7.70;3.40;;;17.90;67.00;;;;;;5062361;28;20183;-50
2021/10/21 10:24:33;;;;;;;2.83;2.63;;;17.70;68.00;;;;;;5056277;28;20433;-49
2021/10/21 10:27:02;;;;;;;3.73;3.33;;;17.60;69.00;;;;;;5051905;28;20435;-46
2021/10/21 10:29:31;;;;;;;3.10;3.00;;;17.90;68.50;;;;;;5051883;28;20441;-48
2021/10/21 10:32:00;;;;;;;3.20;3.10;;;18.10;67.90;;;;;;5057620;28;21118;-47
2021/10/21 10:34:35;;;;;;;3.23;3.13;;;18.00;67.60;;;;;;5054659;28;20410;-46
2021/10/21 10:37:12;;;;;;;3.60;3.40;;;18.10;67.80;;;;;;5054777;28;20475;-50
2021/10/21 10:40:02;;;;;;;3.73;3.53;;;17.70;68.10;;;;;;5067821;28;20431;-55
2021/10/21 10:42:37;;;;;;;4.00;3.30;;;17.30;70.90;;;;;;5055844;28;20444;-49
2021/10/21 10:45:12;;;;;;;3.90;3.70;;;16.80;71.40;;;;;;5051700;28;20427;-49
2021/10/21 10:47:53;;;;;;;4.10;3.80;;;16.70;73.00;;;;;;5059335;28;20447;-49
2021/10/21 10:50:22;;;;;;;4.07;3.73;;;16.60;73.80;;;;;;5052848;28;20642;-47
2021/10/21 10:52:51;;;;;;;3.90;3.50;;;16.80;73.00;;;;;;5072107;28;20411;-46
2021/10/21 10:55:24;;;;;;;4.07;3.70;;;17.00;72.50;;;;;;5055157;28;20915;-48
2021/10/21 10:57:56;;;;;;;3.60;3.40;;;17.30;71.40;;;;;;5063272;28;20471;-48
2021/10/21 11:00:38;;;;;;;4.03;3.83;;;17.30;72.10;;;;;;5067825;28;21200;-50
2021/10/21 11:03:08;;;;;;;3.27;3.17;;;17.00;77.50;;;;;;5070959;28;20495;-46
2021/10/21 11:05:43;;;;;;;3.30;3.10;;;16.20;83.30;;;;;;5059851;28;20525;-46
2021/10/21 11:08:10;;;;;;;2.80;2.70;;;15.80;86.60;;;;;;5063088;28;20808;-48
2021/10/21 11:10:38;;;;;;;2.80;2.60;;;15.50;90.80;;;;;;5054252;28;20865;-49
2021/10/21 11:13:23;;;;;;;2.90;2.70;;;15.30;96.20;;;;;;5060074;28;20739;-51
2021/10/21 11:15:51;;;;;;;4.17;2.20;;;14.70;97.00;;;;;;5049473;28;20500;-48
2021/10/21 11:18:31;;;;;;;2.90;2.30;;;14.40;99.70;;;;;;5049018;28;20416;-47
2021/10/21 11:20:57;;;;;;;3.77;2.20;;;14.30;98.20;;;;;;5051389;28;20534;-49
2021/10/21 11:23:25;;;;;;;3.97;2.20;;;14.40;98.60;;;;;;5054973;28;20420;-49
2021/10/21 11:25:56;;;;;;;2.30;2.20;;;14.70;95.50;;;;;;5050557;28;20405;-49
2021/10/21 11:28:26;;;;;;;3.80;2.60;;;14.80;95.10;;;;;;5048647;28;20536;-45
2021/10/21 11:30:52;;;;;;;2.50;2.40;;;14.90;93.30;;;;;;5048556;28;20429;-49
2021/10/21 11:33:19;;;;;;;2.50;2.30;;;15.00;94.20;;;;;;5050024;28;20420;-52
2021/10/21 11:35:45;;;;;;;2.97;2.67;;;15.10;92.90;;;;;;5049539;28;20903;-48
2021/10/21 11:38:14;;;;;;;3.03;2.83;;;15.30;91.30;;;;;;5049301;28;21814;-46
2021/10/21 11:40:42;;;;;;;2.50;2.40;;;15.50;90.60;;;;;;5048556;28;20495;-49
2021/10/21 11:43:13;;;;;;;3.40;2.70;;;15.50;90.10;;;;;;5047583;28;20763;-47
2021/10/21 11:45:40;;;;;;;2.80;2.70;;;15.60;91.00;;;;;;5053804;28;20415;-49
2021/10/21 11:48:08;;;;;;;2.80;2.70;;;16.00;89.80;;;;;;5047223;28;20417;-49
2021/10/21 11:50:46;;;;;;;2.97;2.87;;;16.30;88.00;;;;;;5051427;28;20508;-47
2021/10/21 11:53:14;;;;;;;2.93;2.60;;;16.90;84.20;;;;;;5048697;28;20522;-47
2021/10/21 11:55:44;;;;;;;6.90;3.03;;;17.40;77.70;;;;;;5050526;28;20441;-47
2021/10/21 11:58:17;;;;;;;2.77;2.67;;;17.10;75.00;;;;;;5048433;28;20582;-53
2021/10/21 12:00:45;;;;;;;3.23;3.13;;;17.20;74.20;;;;;;5055967;28;20424;-48
2021/10/21 12:03:12;;;;;;;3.10;3.00;;;17.10;73.40;;;;;;5053408;28;21058;-47
2021/10/21 12:05:42;;;;;;;3.40;3.30;;;17.50;72.00;;;;;;5055591;28;20408;-50
2021/10/21 12:08:11;;;;;;;3.20;3.00;;;18.00;67.70;;;;;;5057716;28;20425;-51
2021/10/21 12:10:40;;;;;;;4.23;3.03;;;18.20;68.20;;;;;;5059674;28;20436;-51
2021/10/21 12:13:07;;;;;;;3.17;3.00;;;18.60;66.00;;;;;;5056929;28;21330;-49
2021/10/21 12:15:36;;;;;;;5.00;3.20;;;18.60;64.30;;;;;;5048456;28;20440;-50
2021/10/21 12:18:07;;;;;;;3.60;3.20;;;18.70;63.90;;;;;;5047836;28;20453;-47
2021/10/21 12:20:39;;;;;;;3.03;2.93;;;18.50;63.20;;;;;;5051486;28;20435;-51
2021/10/21 12:23:26;;;;;;;3.40;3.30;;;18.80;62.50;;;;;;5048104;28;20862;-47
2021/10/21 12:25:55;;;;;;;3.57;3.37;;;19.10;61.10;;;;;;5048156;28;20416;-45
2021/10/21 12:28:21;;;;;;;2.87;2.77;;;19.40;59.50;;;;;;5048255;28;20502;-47
2021/10/21 12:30:48;;;;;;;3.10;3.00;;;19.60;57.60;;;;;;5057318;28;20507;-53
2021/10/21 12:33:18;;;;;;;3.53;3.10;;;19.70;99.90;;;;;;5061763;28;20190;-49
2021/10/21 12:36:20;;;;;;;3.50;3.30;;;19.90;99.90;;;;;;5065966;28;20886;-49
2021/10/21 12:38:51;;;;;;;3.10;2.90;;;19.40;99.90;;;;;;5012117;28;20440;-49
2021/10/21 12:41:17;;;;;;;3.23;3.13;;;18.90;99.90;;;;;;5047741;28;20424;-55
2021/10/21 12:43:43;;;;;;;3.50;3.40;;;18.40;99.90;;;;;;5049177;28;20415;-49
2021/10/21 12:46:26;;;;;;;4.47;3.60;;;18.90;99.90;;;;;;5050435;28;20503;-50
2021/10/21 12:49:08;;;;;;;3.40;3.30;;;19.20;99.90;;;;;;5046605;28;20283;-48
2021/10/21 12:51:33;;;;;;;3.43;3.33;;;18.60;99.90;;;;;;5047780;28;20923;-47